No data was retrieved for https://query.yahooapis.com/v1/public/yql?q=select+%2A+from+weather.forecast+where+woeid%3D860853&format=xml&u=c



Visit our other weather sites:

Template documentation
and downloads

And another site



Nearby METAR Reports

   
EBAW - Antwerp
Updated: 28-05-2022 23:50
  
  
   Wind: NNW 3.6 m/s
Wind: NNW 3.6 m/s
Temperature: 10°C
Wind Chill: 8°C
Dew Point: 5°C
Humidity: 71%
Barometer: 1020 hPa
Visibility: More than 10 km
Cloud details: Overcast
EBAW 282150Z AUTO 33007KT 9999 // VV/// 10/05 Q1020
EBLG - Liège
Updated: 28-05-2022 23:50
Clear  
Clear  
   Wind: North 1.5 m/s
Wind: North 1.5 m/s
Temperature: 7°C
Wind Chill: 6°C
Dew Point: 3°C
Humidity: 76%
Barometer: 1019 hPa
Visibility: More than 10 km
Cloud details: Clear
EBLG 282150Z 35003KT 310V010 CAVOK 07/03 Q1019 NOSIG
EBCV - Mons/Bergen
Updated: 28-05-2022 23:55
Clear  
Clear  
   Wind: NNW 2.6 m/s
Wind: NNW 2.6 m/s
Temperature: 7°C
Wind Chill: 5°C
Dew Point: 5°C
Humidity: 87%
Barometer: 1020 hPa
Clouds: Clear
Visibility: More than 10 km
Cloud details: Clear
EBCV 282155Z AUTO 34005KT 9999 NCD 07/05 Q1020 BLU
EHBK - Maastricht
Updated: 28-05-2022 23:55
Few Clouds  
Few Clouds  
   Wind: varies Calm
Wind: varies Calm
Temperature: 9°C
Dew Point: 4°C
Humidity: 71%
Barometer: 1019 hPa
Clouds: Few Clouds
Visibility: More than 10 km
Cloud details: Few Clouds 3000 ft
EHBK 282155Z AUTO /////KT 9999 FEW030 09/04 Q1019
ELLX - Luxemburg
Updated: 28-05-2022 23:50
Clear  
Clear  
   Wind: North 4.1 m/s
Wind: North 4.1 m/s
Temperature: 10°C
Wind Chill: 8°C
Dew Point: 3°C
Humidity: 62%
Barometer: 1017 hPa
Visibility: More than 10 km
Cloud details: Clear
ELLX 282150Z 35008KT CAVOK 10/03 Q1017 NOSIG
EBOS - Oostende
Updated: 28-05-2022 23:50
Few Clouds  
Few Clouds  
   Wind: North 3.6 m/s
Wind: North 3.6 m/s
Temperature: 10°C
Wind Chill: 8°C
Dew Point: 3°C
Humidity: 62%
Barometer: 1021 hPa
Clouds: Few Clouds
Visibility: More than 10 km
Cloud details: Few Clouds 2800 ft
EBOS 282150Z 01007KT 330V060 9999 FEW028 10/03 Q1021 NOSIG

Script developed by  Saratoga-weather.org Adapted for the template by  Weerstation Leuven

You find our weather info also at:

Weather Underground

Equipment we use:

Weather-station
Davis Vantage Vue

Weather-program
WeatherCat

Provider
one.com

Davis Vantage Vue

WeatherCat

one.com